createdAt,value
2023-05-04T00:00:43.184Z,16.60
2023-05-04T00:03:10.399Z,16.50
2023-05-04T00:05:37.484Z,16.60
2023-05-04T00:08:04.713Z,16.60
2023-05-04T00:10:31.962Z,16.60
2023-05-04T00:12:59.088Z,16.60
2023-05-04T00:15:26.207Z,16.50
2023-05-04T00:17:53.338Z,16.60
2023-05-04T00:20:20.385Z,16.60
2023-05-04T00:22:47.418Z,16.50
2023-05-04T00:25:14.499Z,16.50
2023-05-04T00:27:41.528Z,16.50
2023-05-04T00:30:09.181Z,16.40
2023-05-04T00:32:36.219Z,16.40
2023-05-04T00:35:03.535Z,16.40
2023-05-04T00:37:30.544Z,16.40
2023-05-04T00:39:58.016Z,16.40
2023-05-04T00:42:25.031Z,16.40
2023-05-04T00:44:52.120Z,16.40
2023-05-04T00:47:19.963Z,16.40
2023-05-04T00:49:47.213Z,16.30
2023-05-04T00:52:15.768Z,16.30
2023-05-04T00:54:45.124Z,16.30
2023-05-04T00:57:12.838Z,16.30
2023-05-04T00:59:39.944Z,16.30
2023-05-04T01:02:07.357Z,16.30
2023-05-04T01:04:34.683Z,16.30
2023-05-04T01:07:30.521Z,16.20
2023-05-04T01:10:03.272Z,16.20
2023-05-04T01:12:44.494Z,16.20
2023-05-04T01:15:13.342Z,16.20
2023-05-04T01:17:40.794Z,16.30
2023-05-04T01:20:09.554Z,16.30
2023-05-04T01:22:38.183Z,16.20
2023-05-04T01:25:06.236Z,16.20
2023-05-04T01:27:46.410Z,16.20
2023-05-04T01:30:37.928Z,16.20
2023-05-04T01:33:06.392Z,16.20
2023-05-04T01:35:33.901Z,16.10
2023-05-04T01:38:01.057Z,15.90
2023-05-04T01:40:28.384Z,16.00
2023-05-04T01:42:55.473Z,15.80
2023-05-04T01:45:22.820Z,15.50
2023-05-04T01:47:50.270Z,15.50
2023-05-04T01:50:17.307Z,15.50
2023-05-04T01:52:44.307Z,15.50
2023-05-04T01:55:11.260Z,15.40
2023-05-04T01:57:38.311Z,15.40
2023-05-04T02:00:05.997Z,15.40
2023-05-04T02:02:33.398Z,15.30
2023-05-04T02:05:00.458Z,15.00
2023-05-04T02:07:27.531Z,14.90
2023-05-04T02:09:54.456Z,14.70
2023-05-04T02:12:21.471Z,14.50
2023-05-04T02:14:48.380Z,14.30
2023-05-04T02:17:15.487Z,14.30
2023-05-04T02:19:42.402Z,14.10
2023-05-04T02:22:09.427Z,13.90
2023-05-04T02:24:36.421Z,13.90
2023-05-04T02:27:03.454Z,13.70
2023-05-04T02:29:30.489Z,13.30
2023-05-04T02:31:57.556Z,13.30
2023-05-04T02:34:24.596Z,13.40
2023-05-04T02:36:51.519Z,13.60
2023-05-04T02:39:18.615Z,13.20
2023-05-04T02:41:45.539Z,13.00
2023-05-04T02:44:12.570Z,13.20
2023-05-04T02:46:39.521Z,13.20
2023-05-04T02:49:06.617Z,13.00
2023-05-04T02:51:33.639Z,13.00
2023-05-04T02:54:00.797Z,12.80
2023-05-04T02:56:27.773Z,12.80
2023-05-04T02:58:54.735Z,12.60
2023-05-04T03:01:21.870Z,12.50
2023-05-04T03:03:48.952Z,12.40
2023-05-04T03:06:15.941Z,12.50
2023-05-04T03:08:42.907Z,12.50
2023-05-04T03:11:09.981Z,12.20
2023-05-04T03:13:36.949Z,12.40
2023-05-04T03:16:05.593Z,12.20
2023-05-04T03:18:32.710Z,12.10
2023-05-04T03:20:59.745Z,12.00
2023-05-04T03:23:26.792Z,12.20
2023-05-04T03:25:53.746Z,12.10
2023-05-04T03:28:20.867Z,12.10
2023-05-04T03:30:47.963Z,12.10
2023-05-04T03:33:14.861Z,11.80
2023-05-04T03:35:42.064Z,11.80
2023-05-04T03:38:09.992Z,11.80
2023-05-04T03:40:37.398Z,11.60
2023-05-04T03:43:04.400Z,11.70
2023-05-04T03:45:31.364Z,11.70
2023-05-04T03:47:58.500Z,11.70
2023-05-04T03:50:25.500Z,11.70
2023-05-04T03:52:52.434Z,11.50
2023-05-04T03:55:19.521Z,11.50
2023-05-04T03:57:46.550Z,11.30
2023-05-04T04:00:14.109Z,11.30
2023-05-04T04:02:41.380Z,11.30
2023-05-04T04:05:09.519Z,11.20
2023-05-04T04:07:36.541Z,11.30
2023-05-04T04:10:04.034Z,11.30
2023-05-04T04:12:31.134Z,11.30
2023-05-04T04:14:58.190Z,11.20
2023-05-04T04:17:25.320Z,11.10
2023-05-04T04:19:52.512Z,11.20
2023-05-04T04:22:19.495Z,11.10
2023-05-04T04:24:46.599Z,11.10
2023-05-04T04:27:13.937Z,11.30
2023-05-04T04:29:41.174Z,11.20
2023-05-04T04:32:08.623Z,11.30
2023-05-04T04:34:35.911Z,11.00
2023-05-04T04:37:02.954Z,11.10
2023-05-04T04:39:30.081Z,11.10
2023-05-04T04:41:57.038Z,10.90
2023-05-04T04:44:24.165Z,10.90
2023-05-04T04:46:51.641Z,11.00
2023-05-04T04:49:18.822Z,11.10
2023-05-04T04:51:45.875Z,12.70
2023-05-04T04:54:12.995Z,11.20
2023-05-04T04:56:45.009Z,11.20
2023-05-04T04:59:13.119Z,11.10
2023-05-04T05:01:42.177Z,11.20
2023-05-04T05:04:09.213Z,11.20
2023-05-04T05:06:36.816Z,11.30
2023-05-04T05:09:04.164Z,11.30
2023-05-04T05:11:32.258Z,11.40
2023-05-04T05:13:59.965Z,11.30
2023-05-04T05:16:27.165Z,11.20
2023-05-04T05:18:56.976Z,11.40
2023-05-04T05:21:24.266Z,11.40
2023-05-04T05:23:51.500Z,11.20
2023-05-04T05:26:18.518Z,11.40
2023-05-04T05:28:45.494Z,11.40
2023-05-04T05:31:12.556Z,11.40
2023-05-04T05:33:40.637Z,11.30
2023-05-04T05:36:07.961Z,11.40
2023-05-04T05:38:34.918Z,11.50
2023-05-04T05:41:02.060Z,11.90
2023-05-04T05:43:29.111Z,12.80
2023-05-04T05:45:56.341Z,13.90
2023-05-04T05:48:23.301Z,15.30
2023-05-04T05:50:50.610Z,16.00
2023-05-04T05:53:17.557Z,16.60
2023-05-04T05:55:46.060Z,16.90
2023-05-04T05:58:13.908Z,17.10
2023-05-04T06:00:40.973Z,17.30
2023-05-04T06:03:08.292Z,17.60
2023-05-04T06:05:35.481Z,17.80
2023-05-04T06:08:02.641Z,17.90
2023-05-04T06:10:29.756Z,18.50
2023-05-04T06:12:59.448Z,19.40
2023-05-04T06:15:26.528Z,19.50
2023-05-04T06:17:53.966Z,20.00
2023-05-04T06:20:21.016Z,20.70
2023-05-04T06:22:48.329Z,21.60
2023-05-04T06:25:15.419Z,23.40
2023-05-04T06:27:42.913Z,24.60
2023-05-04T06:30:10.315Z,24.40
2023-05-04T06:32:37.675Z,24.40
2023-05-04T06:35:05.334Z,23.60
2023-05-04T06:37:32.360Z,22.30
2023-05-04T06:39:59.467Z,21.50
2023-05-04T06:42:31.001Z,21.50
2023-05-04T06:44:58.654Z,21.60
2023-05-04T06:47:25.833Z,21.50
2023-05-04T06:49:52.769Z,21.60
2023-05-04T06:52:19.903Z,21.40
2023-05-04T06:54:47.052Z,21.90
2023-05-04T06:57:14.131Z,22.80
2023-05-04T06:59:41.237Z,23.60
2023-05-04T07:02:08.196Z,23.20
2023-05-04T07:04:35.231Z,23.10
2023-05-04T07:07:02.249Z,23.00
2023-05-04T07:09:29.241Z,24.70
2023-05-04T07:11:56.310Z,26.60
2023-05-04T07:14:23.345Z,29.30
2023-05-04T07:16:50.394Z,30.10
2023-05-04T07:19:17.665Z,31.80
2023-05-04T07:21:44.686Z,33.40
2023-05-04T07:24:11.859Z,33.30
2023-05-04T07:26:39.092Z,32.90
2023-05-04T07:29:06.144Z,34.00
2023-05-04T07:31:33.730Z,33.90
2023-05-04T07:34:01.072Z,35.90
2023-05-04T07:36:28.081Z,38.60
2023-05-04T07:38:55.239Z,39.00
2023-05-04T07:41:22.394Z,38.90
2023-05-04T07:43:49.481Z,40.00
2023-05-04T07:46:16.659Z,40.30
2023-05-04T07:48:43.720Z,40.40
2023-05-04T07:51:14.841Z,39.60
2023-05-04T07:53:43.210Z,38.60
2023-05-04T07:56:13.921Z,37.60
2023-05-04T07:58:41.673Z,37.80
2023-05-04T08:01:08.754Z,37.30
2023-05-04T08:03:36.701Z,36.80
2023-05-04T08:06:03.995Z,36.50
2023-05-04T08:08:31.104Z,38.40
2023-05-04T08:11:11.634Z,39.40
2023-05-04T08:13:40.752Z,39.30
2023-05-04T08:16:09.890Z,40.40
2023-05-04T08:18:37.245Z,40.80
2023-05-04T08:21:04.581Z,37.20
2023-05-04T08:23:33.570Z,35.00
2023-05-04T08:26:04.972Z,34.30
2023-05-04T08:28:40.666Z,34.80
2023-05-04T08:31:08.143Z,36.90
2023-05-04T08:33:35.210Z,37.90
2023-05-04T08:36:03.265Z,37.90
2023-05-04T08:38:30.348Z,36.70
2023-05-04T08:40:57.661Z,37.50
2023-05-04T08:43:24.789Z,38.40
2023-05-04T08:45:52.257Z,39.80
2023-05-04T08:48:19.404Z,39.80
2023-05-04T08:50:46.915Z,38.60
2023-05-04T08:53:15.360Z,38.40
2023-05-04T08:55:43.319Z,39.20
2023-05-04T08:58:16.710Z,40.30
2023-05-04T09:00:43.869Z,40.00
2023-05-04T09:03:12.145Z,40.40
2023-05-04T09:05:41.587Z,40.60
2023-05-04T09:08:08.849Z,39.80
2023-05-04T09:10:36.831Z,40.10
2023-05-04T09:13:03.966Z,39.10
2023-05-04T09:15:31.692Z,38.20
2023-05-04T09:18:03.717Z,38.40
2023-05-04T09:20:42.618Z,38.30
2023-05-04T09:23:09.930Z,37.70
2023-05-04T09:25:51.878Z,37.90
2023-05-04T09:28:20.692Z,37.90
2023-05-04T09:30:49.139Z,36.30
2023-05-04T09:33:16.656Z,34.40
2023-05-04T09:35:46.969Z,34.80
2023-05-04T09:38:27.623Z,35.80
2023-05-04T09:40:54.796Z,36.60
2023-05-04T09:43:22.136Z,36.40
2023-05-04T09:45:49.537Z,36.10
2023-05-04T09:48:20.478Z,35.40
2023-05-04T09:51:01.186Z,34.30
2023-05-04T09:53:32.310Z,32.80
2023-05-04T09:56:02.217Z,32.40
2023-05-04T09:58:32.207Z,31.70
2023-05-04T10:01:01.348Z,31.00
2023-05-04T10:03:29.138Z,29.10
2023-05-04T10:05:58.476Z,27.40
2023-05-04T10:08:27.258Z,26.80
2023-05-04T10:10:55.377Z,26.70
2023-05-04T10:13:23.081Z,26.60
2023-05-04T10:16:14.703Z,26.60
2023-05-04T10:19:09.838Z,25.90
2023-05-04T10:21:58.264Z,25.60
2023-05-04T10:24:44.868Z,25.60
2023-05-04T10:27:21.613Z,25.60
2023-05-04T10:29:50.893Z,25.60
2023-05-04T10:32:20.104Z,25.00
2023-05-04T10:34:47.766Z,24.80
2023-05-04T10:37:19.437Z,24.70
2023-05-04T10:39:56.539Z,24.90
2023-05-04T10:42:23.661Z,25.10
2023-05-04T10:44:56.026Z,25.10
2023-05-04T10:47:33.944Z,25.30
2023-05-04T10:50:06.894Z,25.40
2023-05-04T10:52:48.944Z,25.50
2023-05-04T10:55:16.912Z,25.30
2023-05-04T10:57:57.986Z,25.40
2023-05-04T11:00:37.100Z,25.60
2023-05-04T11:03:05.125Z,25.50
2023-05-04T11:05:55.834Z,25.50
2023-05-04T11:08:24.422Z,25.70
2023-05-04T11:11:06.711Z,25.70
2023-05-04T11:13:35.053Z,25.80
2023-05-04T11:16:02.434Z,26.00
2023-05-04T11:18:37.666Z,26.20
2023-05-04T11:21:05.185Z,26.00
2023-05-04T11:23:32.629Z,26.40
2023-05-04T11:26:09.209Z,26.30
2023-05-04T11:28:37.737Z,26.40
2023-05-04T11:31:15.258Z,26.30
2023-05-04T11:33:50.201Z,26.30
2023-05-04T11:36:18.414Z,26.50
2023-05-04T11:38:45.649Z,26.30
2023-05-04T11:41:13.030Z,26.30
2023-05-04T11:43:44.446Z,26.30
2023-05-04T11:46:11.718Z,26.20
2023-05-04T11:48:40.030Z,26.20
2023-05-04T11:51:07.581Z,26.20
2023-05-04T11:53:41.296Z,26.50
2023-05-04T11:56:09.230Z,27.00
2023-05-04T11:58:36.823Z,27.10
2023-05-04T12:01:04.380Z,26.80
2023-05-04T12:06:05.040Z,26.90
2023-05-04T12:08:36.666Z,27.10
2023-05-04T12:11:10.187Z,27.00
2023-05-04T12:13:37.613Z,26.90
2023-05-04T12:16:21.161Z,26.90
2023-05-04T12:18:48.877Z,26.80
2023-05-04T12:21:19.460Z,26.80
2023-05-04T12:23:47.574Z,26.80
2023-05-04T12:26:17.419Z,26.80
2023-05-04T12:28:47.040Z,26.60
2023-05-04T12:31:14.132Z,26.40
2023-05-04T12:33:41.308Z,26.50
2023-05-04T12:36:08.479Z,26.60
2023-05-04T12:38:35.697Z,26.80
2023-05-04T12:41:04.426Z,26.80
2023-05-04T12:43:33.269Z,26.90
2023-05-04T12:46:00.795Z,27.00
2023-05-04T12:48:29.187Z,27.40
2023-05-04T12:50:56.372Z,27.30
2023-05-04T12:53:25.967Z,27.40
2023-05-04T12:55:53.254Z,27.30
2023-05-04T12:58:20.370Z,26.90
2023-05-04T13:00:47.459Z,26.70
2023-05-04T13:03:17.105Z,26.70
2023-05-04T13:05:46.225Z,26.60
2023-05-04T13:08:13.547Z,26.60
2023-05-04T13:10:40.697Z,26.30
2023-05-04T13:13:07.691Z,26.40
2023-05-04T13:15:35.147Z,26.40
2023-05-04T13:18:03.076Z,26.40
2023-05-04T13:20:30.813Z,26.40
2023-05-04T13:22:58.627Z,26.40
2023-05-04T13:25:25.885Z,26.50
2023-05-04T13:27:53.134Z,26.60
2023-05-04T13:30:21.793Z,26.60
2023-05-04T13:32:49.316Z,26.70
2023-05-04T13:35:16.731Z,26.70
2023-05-04T13:37:43.739Z,26.70
2023-05-04T13:40:11.688Z,26.80
2023-05-04T13:42:38.741Z,26.90
2023-05-04T13:45:07.060Z,27.00
2023-05-04T13:47:37.077Z,27.20
2023-05-04T13:50:04.880Z,27.10
2023-05-04T13:52:32.443Z,27.20
2023-05-04T13:54:59.771Z,27.20
2023-05-04T13:57:29.831Z,27.10
2023-05-04T14:00:05.687Z,27.00
2023-05-04T14:02:35.103Z,26.80
2023-05-04T14:05:04.144Z,26.70
2023-05-04T14:07:31.525Z,26.80
2023-05-04T14:09:59.559Z,26.90
2023-05-04T14:12:27.503Z,27.00
2023-05-04T14:14:54.673Z,26.90
2023-05-04T14:17:21.835Z,26.90
2023-05-04T14:19:48.781Z,27.00
2023-05-04T14:22:15.947Z,27.10
2023-05-04T14:24:43.205Z,27.20
2023-05-04T14:27:10.252Z,27.30
2023-05-04T14:29:37.249Z,27.20
2023-05-04T14:32:04.543Z,27.20
2023-05-04T14:34:32.719Z,27.30
2023-05-04T14:36:59.878Z,26.90
2023-05-04T14:39:26.916Z,26.90
2023-05-04T14:41:54.029Z,27.10
2023-05-04T14:44:22.725Z,27.40
2023-05-04T14:46:49.851Z,27.50
2023-05-04T14:49:32.548Z,27.50
2023-05-04T14:52:03.896Z,27.40
2023-05-04T14:54:31.204Z,27.50
2023-05-04T14:56:59.072Z,27.50
2023-05-04T14:59:26.392Z,27.40
2023-05-04T15:01:55.036Z,27.40
2023-05-04T15:04:22.523Z,27.30
2023-05-04T15:06:49.898Z,27.30
2023-05-04T15:09:16.813Z,27.40
2023-05-04T15:11:43.818Z,27.60
2023-05-04T15:14:11.229Z,27.60
2023-05-04T15:16:38.652Z,27.60
2023-05-04T15:19:05.892Z,27.40
2023-05-04T15:21:32.947Z,27.40
2023-05-04T15:24:00.304Z,27.30
2023-05-04T15:26:29.044Z,27.30
2023-05-04T15:28:56.251Z,27.20
2023-05-04T15:31:23.390Z,27.20
2023-05-04T15:33:50.386Z,27.00
2023-05-04T15:36:17.960Z,27.00
2023-05-04T15:38:45.019Z,26.90
2023-05-04T15:41:13.854Z,26.90
2023-05-04T15:43:41.079Z,26.80
2023-05-04T15:46:08.099Z,26.80
2023-05-04T15:48:35.141Z,26.80
2023-05-04T15:51:02.270Z,26.80
2023-05-04T15:53:29.381Z,26.70
2023-05-04T15:55:56.489Z,26.80
2023-05-04T15:58:23.787Z,26.80
2023-05-04T16:00:51.038Z,26.80
2023-05-04T16:03:18.356Z,26.80
2023-05-04T16:05:46.004Z,27.00
2023-05-04T16:08:12.986Z,26.90
2023-05-04T16:10:40.037Z,25.70
2023-05-04T16:13:08.057Z,26.70
2023-05-04T16:15:37.133Z,26.60
2023-05-04T16:18:04.529Z,26.70
2023-05-04T16:20:31.733Z,26.80
2023-05-04T16:22:58.873Z,26.80
2023-05-04T16:25:25.938Z,26.70
2023-05-04T16:27:53.850Z,26.60
2023-05-04T16:30:21.692Z,26.40
2023-05-04T16:32:48.945Z,26.50
2023-05-04T16:35:16.012Z,26.40
2023-05-04T16:37:42.939Z,26.50
2023-05-04T16:40:11.996Z,26.40
2023-05-04T16:42:39.343Z,26.30
2023-05-04T16:45:07.636Z,26.30
2023-05-04T16:47:34.768Z,26.20
2023-05-04T16:50:01.793Z,26.20
2023-05-04T16:52:28.885Z,26.20
2023-05-04T16:54:55.970Z,26.30
2023-05-04T16:57:23.146Z,26.30
2023-05-04T16:59:50.459Z,26.20
2023-05-04T17:02:17.513Z,26.30
2023-05-04T17:04:44.610Z,26.30
2023-05-04T17:07:13.712Z,26.20
2023-05-04T17:09:41.393Z,26.40
2023-05-04T17:12:08.447Z,26.30
2023-05-04T17:14:35.672Z,26.20
2023-05-04T17:17:02.771Z,26.20
2023-05-04T17:19:29.771Z,26.00
2023-05-04T17:21:56.789Z,25.80
2023-05-04T17:24:23.789Z,25.70
2023-05-04T17:26:50.847Z,25.70
2023-05-04T17:29:17.870Z,25.60
2023-05-04T17:31:45.017Z,25.60
2023-05-04T17:34:11.993Z,25.50
2023-05-04T17:36:38.922Z,25.40
2023-05-04T17:39:06.185Z,25.30
2023-05-04T17:41:33.116Z,25.30
2023-05-04T17:44:00.217Z,25.20
2023-05-04T17:46:27.369Z,25.20
2023-05-04T17:48:54.658Z,25.20
2023-05-04T17:51:22.934Z,25.20
2023-05-04T17:53:49.967Z,25.20
2023-05-04T17:56:17.165Z,24.40
2023-05-04T17:58:44.088Z,25.10
2023-05-04T18:01:12.903Z,25.00
2023-05-04T18:03:40.444Z,25.00
2023-05-04T18:06:08.356Z,25.00
2023-05-04T18:08:35.443Z,24.90
2023-05-04T18:11:02.480Z,24.80
2023-05-04T18:13:29.532Z,24.70
2023-05-04T18:15:56.601Z,24.70
2023-05-04T18:18:23.748Z,24.70
2023-05-04T18:20:50.860Z,24.70
2023-05-04T18:23:18.054Z,24.70
2023-05-04T18:25:44.973Z,24.60
2023-05-04T18:28:11.949Z,24.60
2023-05-04T18:30:38.946Z,24.50
2023-05-04T18:33:06.107Z,24.40
2023-05-04T18:35:33.164Z,24.30
2023-05-04T18:38:00.153Z,24.20
2023-05-04T18:40:27.249Z,24.00
2023-05-04T18:42:54.246Z,23.90
2023-05-04T18:45:21.697Z,23.70
2023-05-04T18:47:48.839Z,23.60
2023-05-04T18:50:16.149Z,23.50
2023-05-04T18:52:43.215Z,23.30
2023-05-04T18:55:10.507Z,23.10
2023-05-04T18:57:37.509Z,22.90
2023-05-04T19:00:06.998Z,22.80
2023-05-04T19:02:34.564Z,22.60
2023-05-04T19:05:01.724Z,22.50
2023-05-04T19:07:28.851Z,22.30
2023-05-04T19:09:55.978Z,22.20
2023-05-04T19:12:23.031Z,22.10
2023-05-04T19:14:51.236Z,22.00
2023-05-04T19:17:18.822Z,21.90
2023-05-04T19:19:45.937Z,21.70
2023-05-04T19:22:15.538Z,21.70
2023-05-04T19:24:42.670Z,21.60
2023-05-04T19:27:10.468Z,21.40
2023-05-04T19:29:37.566Z,21.20
2023-05-04T19:32:15.718Z,21.20
2023-05-04T19:34:50.355Z,21.30
2023-05-04T19:37:17.399Z,21.50
2023-05-04T19:39:44.373Z,21.60
2023-05-04T19:42:11.700Z,21.70
2023-05-04T19:44:38.772Z,21.80
2023-05-04T19:47:05.821Z,21.90
2023-05-04T19:49:33.073Z,21.90
2023-05-04T19:52:00.433Z,22.00
2023-05-04T19:54:27.513Z,22.10
2023-05-04T19:56:54.590Z,22.20
2023-05-04T19:59:21.640Z,22.30
2023-05-04T20:01:48.664Z,22.30
2023-05-04T20:04:16.113Z,22.40
2023-05-04T20:06:43.130Z,22.50
2023-05-04T20:09:10.763Z,22.50
2023-05-04T20:11:38.315Z,22.60
2023-05-04T20:14:05.723Z,22.60
2023-05-04T20:16:32.790Z,22.60
2023-05-04T20:19:02.710Z,22.60
2023-05-04T20:21:30.938Z,22.60
2023-05-04T20:23:58.004Z,22.60
2023-05-04T20:26:25.053Z,22.40
2023-05-04T20:28:52.084Z,22.40
2023-05-04T20:31:19.285Z,22.40
2023-05-04T20:33:46.337Z,22.30
2023-05-04T20:36:13.489Z,22.30
2023-05-04T20:38:40.971Z,22.30
2023-05-04T20:41:09.247Z,22.20
2023-05-04T20:43:36.557Z,22.10
2023-05-04T20:46:04.412Z,21.90
2023-05-04T20:48:31.888Z,21.80
2023-05-04T20:51:10.505Z,21.60
2023-05-04T20:53:41.375Z,21.50
2023-05-04T20:56:08.367Z,21.40
2023-05-04T20:58:35.396Z,21.30
2023-05-04T21:01:04.117Z,21.10
2023-05-04T21:03:32.059Z,21.00
2023-05-04T21:05:59.342Z,20.80
2023-05-04T21:08:26.786Z,20.80
2023-05-04T21:10:54.088Z,20.70
2023-05-04T21:13:21.271Z,20.60
2023-05-04T21:15:48.470Z,20.50
2023-05-04T21:18:15.856Z,20.50
2023-05-04T21:20:42.788Z,20.30
2023-05-04T21:23:10.349Z,20.20
2023-05-04T21:25:37.546Z,20.10
2023-05-04T21:28:04.777Z,20.00
2023-05-04T21:30:31.805Z,20.00
2023-05-04T21:33:00.452Z,19.90
2023-05-04T21:35:30.949Z,19.80
2023-05-04T21:37:59.399Z,19.90
2023-05-04T21:40:29.981Z,19.90
2023-05-04T21:42:57.061Z,19.80
2023-05-04T21:45:24.140Z,19.90
2023-05-04T21:47:51.369Z,19.80
2023-05-04T21:50:18.446Z,19.70
2023-05-04T21:52:45.689Z,19.70
2023-05-04T21:55:12.741Z,19.70
2023-05-04T21:57:39.932Z,19.70
2023-05-04T22:00:19.290Z,19.70
2023-05-04T22:02:46.651Z,19.70
2023-05-04T22:05:13.689Z,19.70
2023-05-04T22:07:40.745Z,19.80
2023-05-04T22:10:08.847Z,19.80
2023-05-04T22:12:36.158Z,19.90
2023-05-04T22:15:03.355Z,19.90
2023-05-04T22:17:30.377Z,19.90
2023-05-04T22:19:57.609Z,19.90
2023-05-04T22:22:24.576Z,19.80
2023-05-04T22:24:51.608Z,19.80
2023-05-04T22:27:18.669Z,19.70
2023-05-04T22:29:45.908Z,19.70
2023-05-04T22:32:13.013Z,19.60
2023-05-04T22:34:40.013Z,19.50
2023-05-04T22:37:07.063Z,19.50
2023-05-04T22:39:34.099Z,19.40
2023-05-04T22:42:02.052Z,19.40
2023-05-04T22:44:29.157Z,19.40
2023-05-04T22:46:56.202Z,19.20
2023-05-04T22:49:23.202Z,19.30
2023-05-04T22:51:50.327Z,19.20
2023-05-04T22:54:17.251Z,19.10
2023-05-04T22:56:44.254Z,19.00
2023-05-04T22:59:11.306Z,19.00
2023-05-04T23:01:43.196Z,18.90
2023-05-04T23:04:11.539Z,18.80
2023-05-04T23:06:39.084Z,18.70
2023-05-04T23:09:06.102Z,18.70
2023-05-04T23:11:33.478Z,18.60
2023-05-04T23:14:01.043Z,18.50
2023-05-04T23:16:28.213Z,18.40
2023-05-04T23:18:55.353Z,18.40
2023-05-04T23:21:22.318Z,18.30
2023-05-04T23:23:51.735Z,18.30
2023-05-04T23:26:19.301Z,18.30
2023-05-04T23:28:46.442Z,18.30
2023-05-04T23:31:13.469Z,18.20
2023-05-04T23:33:40.598Z,18.20
2023-05-04T23:36:08.009Z,18.10
2023-05-04T23:38:35.204Z,18.20
2023-05-04T23:41:05.620Z,18.20
2023-05-04T23:43:32.830Z,18.20
2023-05-04T23:46:04.524Z,18.20
2023-05-04T23:48:32.607Z,18.20
2023-05-04T23:51:05.973Z,18.10
2023-05-04T23:53:36.783Z,18.10
2023-05-04T23:56:06.203Z,18.30
2023-05-04T23:58:34.485Z,18.40
